Time;durP1;ratioP1;P1;durP2;ratioP2;P2;SDS_P1;SDS_P2;PMS_P1;PMS_P2;Temp;Humidity;BMP_temperature;BMP_pressure;BME280_temperature;BME280_humidity;BME280_pressure;Samples;Min_cycle;Max_cycle;Signal;HPM_P1;HPM_P2
2022/09/18 00:01:09;;;;;;;9.00;1.65;;;11.50;99.90;;;;;;5112468;27;38534;-57
2022/09/18 00:03:37;;;;;;;7.50;1.30;;;11.50;99.90;;;;;;5113537;27;38340;-57
2022/09/18 00:06:09;;;;;;;6.18;0.95;;;11.50;99.90;;;;;;5113694;27;36339;-57
2022/09/18 00:08:37;;;;;;;4.32;1.25;;;11.50;99.90;;;;;;5112810;27;36829;-57
2022/09/18 00:11:06;;;;;;;10.45;1.55;;;11.50;99.90;;;;;;5113755;27;36222;-60
2022/09/18 00:13:36;;;;;;;4.28;1.08;;;11.50;99.90;;;;;;5112277;27;38637;-59
2022/09/18 00:16:04;;;;;;;9.07;1.38;;;11.50;99.90;;;;;;5112686;27;40056;-59
2022/09/18 00:18:32;;;;;;;9.82;1.20;;;11.50;99.90;;;;;;5113340;27;36436;-57
2022/09/18 00:21:04;;;;;;;8.43;1.25;;;11.50;99.90;;;;;;5113136;27;38467;-59
2022/09/18 00:23:31;;;;;;;12.15;1.40;;;11.50;99.90;;;;;;5112818;27;39407;-57
2022/09/18 00:25:58;;;;;;;7.78;1.20;;;11.60;99.90;;;;;;5113803;27;37669;-57
2022/09/18 00:28:26;;;;;;;9.75;1.00;;;11.50;99.90;;;;;;5113733;27;36325;-58
2022/09/18 00:30:55;;;;;;;11.65;2.17;;;11.50;99.90;;;;;;5113014;27;38209;-57
2022/09/18 00:33:22;;;;;;;10.23;1.05;;;11.50;99.90;;;;;;5113286;27;40263;-59
2022/09/18 00:35:49;;;;;;;8.07;1.75;;;11.50;99.90;;;;;;5113368;27;38802;-57
2022/09/18 00:38:17;;;;;;;7.63;1.20;;;11.50;99.90;;;;;;5113555;27;37171;-59
2022/09/18 00:40:44;;;;;;;8.10;1.55;;;11.50;99.90;;;;;;5113105;27;38582;-57
2022/09/18 00:43:19;;;;;;;9.48;1.60;;;11.50;99.90;;;;;;5113135;27;36895;-57
2022/09/18 00:45:54;;;;;;;8.63;1.23;;;11.50;99.90;;;;;;5112355;27;38404;-59
2022/09/18 00:48:28;;;;;;;5.10;0.85;;;11.50;99.90;;;;;;5113130;27;36604;-59
2022/09/18 00:50:55;;;;;;;8.45;1.33;;;11.50;99.90;;;;;;5113564;27;36319;-59
2022/09/18 00:53:23;;;;;;;8.52;1.02;;;11.50;99.90;;;;;;5110708;27;39263;-59
2022/09/18 00:55:50;;;;;;;4.80;1.17;;;11.60;99.90;;;;;;5110844;27;39075;-59
2022/09/18 00:58:18;;;;;;;7.35;1.23;;;11.50;99.90;;;;;;5112580;27;37187;-59
2022/09/18 01:00:45;;;;;;;8.57;1.40;;;11.60;99.90;;;;;;5111298;27;37720;-59
2022/09/18 01:03:12;;;;;;;14.15;2.60;;;11.60;99.90;;;;;;5112255;27;38300;-59
2022/09/18 01:05:53;;;;;;;8.57;1.33;;;11.60;99.90;;;;;;5112525;27;36355;-59
2022/09/18 01:08:29;;;;;;;8.77;1.52;;;11.60;99.90;;;;;;5112312;27;36837;-57
2022/09/18 01:11:11;;;;;;;9.18;1.77;;;11.60;99.90;;;;;;5113552;27;37621;-57
2022/09/18 01:13:45;;;;;;;5.15;0.95;;;11.60;99.90;;;;;;5112481;27;36800;-57
2022/09/18 01:16:17;;;;;;;;;;;11.60;99.90;;;;;;5113210;27;38836;-57
2022/09/18 01:18:55;;;;;;;6.13;1.42;;;11.60;99.90;;;;;;5113549;27;36636;-57
2022/09/18 01:21:31;;;;;;;10.32;1.30;;;11.50;99.90;;;;;;5113157;27;36379;-57
2022/09/18 01:24:35;;;;;;;8.50;1.65;;;11.50;99.90;;;;;;5112170;27;38589;-59
2022/09/18 01:27:05;;;;;;;6.97;1.73;;;11.50;99.90;;;;;;5112730;27;38644;-59
2022/09/18 01:29:47;;;;;;;7.38;1.50;;;11.50;99.90;;;;;;5113168;27;38167;-59
2022/09/18 01:32:22;;;;;;;9.15;1.63;;;11.50;99.90;;;;;;5113250;27;37929;-57
2022/09/18 01:34:57;;;;;;;8.85;1.33;;;11.50;99.90;;;;;;5113070;27;37945;-59
2022/09/18 01:37:32;;;;;;;9.27;1.17;;;11.50;99.90;;;;;;5111948;27;38448;-59
2022/09/18 01:40:05;;;;;;;10.80;1.20;;;11.50;99.90;;;;;;5112921;27;37559;-59
2022/09/18 01:42:34;;;;;;;10.07;1.45;;;11.50;99.90;;;;;;5110911;27;38293;-59
2022/09/18 01:45:08;;;;;;;8.75;1.40;;;11.50;99.90;;;;;;5111586;27;38467;-59
2022/09/18 01:47:41;;;;;;;5.60;1.05;;;11.50;99.90;;;;;;5112897;27;36700;-59
2022/09/18 01:50:11;;;;;;;7.97;1.25;;;11.50;99.90;;;;;;5112428;27;36498;-59
2022/09/18 01:52:43;;;;;;;10.88;1.50;;;11.50;99.90;;;;;;5112346;27;36376;-59
2022/09/18 01:55:15;;;;;;;11.00;1.33;;;11.50;99.90;;;;;;5111478;27;38859;-57
2022/09/18 01:57:48;;;;;;;9.57;1.77;;;11.60;99.90;;;;;;5112614;27;37915;-57
2022/09/18 02:00:17;;;;;;;5.03;1.10;;;11.60;99.90;;;;;;5111941;27;35403;-57
2022/09/18 02:02:50;;;;;;;10.68;1.30;;;11.60;99.90;;;;;;5112100;27;37253;-57
2022/09/18 02:05:24;;;;;;;11.25;1.52;;;11.60;99.90;;;;;;5115285;27;38220;-59
2022/09/18 02:07:56;;;;;;;;;;;11.60;99.90;;;;;;5114995;27;37925;-57
2022/09/18 02:10:25;;;;;;;11.25;1.58;;;11.50;99.90;;;;;;5116185;27;37702;-57
2022/09/18 02:12:56;;;;;;;10.18;1.63;;;11.50;99.90;;;;;;5115713;27;37559;-57
2022/09/18 02:15:29;;;;;;;11.27;1.17;;;11.50;99.90;;;;;;5115837;27;40196;-58
2022/09/18 02:17:59;;;;;;;7.43;1.80;;;11.60;99.90;;;;;;5115519;27;37577;-57
2022/09/18 02:20:29;;;;;;;10.05;1.38;;;11.60;99.90;;;;;;5115928;27;37277;-57
2022/09/18 02:23:00;;;;;;;8.70;1.42;;;11.60;99.90;;;;;;5114585;27;36347;-57
2022/09/18 02:25:31;;;;;;;9.05;1.40;;;11.60;99.90;;;;;;5113129;27;38232;-59
2022/09/18 02:27:59;;;;;;;5.68;1.33;;;11.60;99.90;;;;;;5115095;27;37907;-57
2022/09/18 02:30:29;;;;;;;13.75;2.80;;;11.60;99.90;;;;;;5115131;27;38870;-57
2022/09/18 02:32:57;;;;;;;16.40;1.83;;;11.60;99.90;;;;;;5115014;27;39065;-59
2022/09/18 02:35:45;;;;;;;10.48;1.50;;;11.60;99.90;;;;;;5115021;27;36968;-59
2022/09/18 02:38:21;;;;;;;11.57;1.30;;;11.60;99.90;;;;;;5115838;27;38212;-59
2022/09/18 02:40:58;;;;;;;9.65;1.55;;;11.60;99.90;;;;;;5115140;27;36761;-59
2022/09/18 02:43:35;;;;;;;10.80;1.92;;;11.60;99.90;;;;;;5114441;27;37457;-59
2022/09/18 02:46:13;;;;;;;9.98;1.45;;;11.60;99.90;;;;;;5115673;27;38034;-59
2022/09/18 02:48:51;;;;;;;15.48;1.63;;;11.60;99.90;;;;;;5115123;27;38322;-59
2022/09/18 02:51:27;;;;;;;11.02;1.40;;;11.70;99.90;;;;;;5113060;27;36943;-59
2022/09/18 02:54:03;;;;;;;11.65;2.25;;;11.70;99.90;;;;;;5114499;27;38347;-59
2022/09/18 02:56:37;;;;;;;9.90;1.38;;;11.70;99.90;;;;;;5114393;27;38201;-59
2022/09/18 02:59:08;;;;;;;13.48;1.98;;;11.70;99.90;;;;;;5115098;27;38457;-59
2022/09/18 03:01:41;;;;;;;13.65;1.77;;;11.70;99.90;;;;;;5115001;27;36633;-59
2022/09/18 03:04:12;;;;;;;11.68;1.40;;;11.70;99.90;;;;;;5114499;27;35222;-59
2022/09/18 03:06:40;;;;;;;13.10;1.70;;;11.70;99.90;;;;;;5114041;27;38000;-60
2022/09/18 03:09:07;;;;;;;7.15;1.30;;;11.70;99.90;;;;;;5114585;27;37591;-59
2022/09/18 03:11:35;;;;;;;9.85;1.52;;;11.70;99.90;;;;;;5114777;27;36477;-59
2022/09/18 03:14:03;;;;;;;7.55;1.17;;;11.70;99.90;;;;;;5114839;27;39224;-57
2022/09/18 03:16:30;;;;;;;12.65;2.15;;;11.70;99.90;;;;;;5111549;27;38489;-57
2022/09/18 03:18:59;;;;;;;8.65;1.63;;;11.70;99.90;;;;;;5114728;27;38442;-59
2022/09/18 03:21:27;;;;;;;11.25;2.17;;;11.70;99.90;;;;;;5114530;27;36418;-59
2022/09/18 03:23:54;;;;;;;6.47;1.77;;;11.70;99.90;;;;;;5113612;27;37706;-59
2022/09/18 03:26:22;;;;;;;7.63;1.45;;;11.60;99.90;;;;;;5113990;27;40706;-59
2022/09/18 03:28:49;;;;;;;7.95;1.55;;;11.70;99.90;;;;;;5114482;27;38955;-59
2022/09/18 03:31:16;;;;;;;6.15;1.50;;;11.70;99.90;;;;;;5114196;27;35478;-59
2022/09/18 03:33:44;;;;;;;6.22;1.60;;;11.70;99.90;;;;;;5114668;27;38752;-57
2022/09/18 03:36:12;;;;;;;6.72;1.40;;;11.70;99.90;;;;;;5114583;27;39389;-57
2022/09/18 03:38:40;;;;;;;9.13;1.35;;;11.70;99.90;;;;;;5113113;27;37902;-57
2022/09/18 03:41:07;;;;;;;7.57;1.50;;;11.70;99.90;;;;;;5114710;27;36510;-59
2022/09/18 03:43:35;;;;;;;8.73;1.20;;;11.70;99.90;;;;;;5114353;27;37712;-58
2022/09/18 03:46:02;;;;;;;6.15;0.85;;;11.70;99.90;;;;;;5112643;27;38063;-57
2022/09/18 03:48:30;;;;;;;7.60;1.15;;;11.70;99.90;;;;;;5113995;27;38182;-57
2022/09/18 03:50:57;;;;;;;6.75;1.15;;;11.70;99.90;;;;;;5112454;27;38172;-57
2022/09/18 03:53:25;;;;;;;5.97;1.73;;;11.70;99.90;;;;;;5112505;27;38350;-59
2022/09/18 03:55:53;;;;;;;7.60;1.30;;;11.70;99.90;;;;;;5113491;27;38286;-59
2022/09/18 03:58:20;;;;;;;5.63;0.93;;;11.70;99.90;;;;;;5113410;27;37806;-57
2022/09/18 04:00:47;;;;;;;4.82;0.85;;;11.70;99.90;;;;;;5122660;27;38200;-57
2022/09/18 04:03:15;;;;;;;9.23;1.40;;;11.70;99.90;;;;;;5116373;27;36329;-57
2022/09/18 04:05:42;;;;;;;7.35;1.25;;;11.70;99.90;;;;;;5113687;27;38099;-59
2022/09/18 04:08:09;;;;;;;10.95;1.25;;;11.70;99.90;;;;;;5113564;27;38665;-57
2022/09/18 04:10:38;;;;;;;11.25;2.38;;;11.70;99.90;;;;;;5114143;27;36643;-57
2022/09/18 04:13:05;;;;;;;9.45;1.50;;;11.70;99.90;;;;;;5114026;27;36302;-59
2022/09/18 04:15:32;;;;;;;7.25;1.40;;;11.70;99.90;;;;;;5113918;27;38132;-59
2022/09/18 04:18:00;;;;;;;5.07;1.00;;;11.70;99.90;;;;;;5112912;27;36675;-59
2022/09/18 04:20:27;;;;;;;10.13;1.10;;;11.70;99.90;;;;;;5113059;27;36632;-59
2022/09/18 04:22:54;;;;;;;5.13;1.20;;;11.70;99.90;;;;;;5113386;27;37668;-59
2022/09/18 04:25:22;;;;;;;12.82;1.55;;;11.70;99.90;;;;;;5112375;27;36846;-57
2022/09/18 04:27:52;;;;;;;7.38;1.40;;;11.70;99.90;;;;;;5113909;27;38793;-59
2022/09/18 04:30:19;;;;;;;9.63;1.63;;;11.70;99.90;;;;;;5113399;27;36595;-57
2022/09/18 04:32:47;;;;;;;6.95;1.80;;;11.70;99.90;;;;;;5112335;27;37410;-57
2022/09/18 04:35:14;;;;;;;4.63;0.98;;;11.60;99.90;;;;;;5112915;27;38531;-57
2022/09/18 04:37:43;;;;;;;6.22;1.05;;;11.70;99.90;;;;;;5113128;27;36040;-59
2022/09/18 04:40:11;;;;;;;7.47;1.02;;;11.70;99.90;;;;;;5112457;27;37787;-59
2022/09/18 04:42:38;;;;;;;8.75;0.90;;;11.60;99.90;;;;;;5113913;27;37318;-59
2022/09/18 04:45:09;;;;;;;8.13;1.08;;;11.60;99.90;;;;;;5111714;27;39244;-59
2022/09/18 04:47:37;;;;;;;7.18;0.68;;;11.60;99.90;;;;;;5113139;27;38413;-59
2022/09/18 04:50:07;;;;;;;3.90;0.60;;;11.60;99.90;;;;;;5112621;27;35411;-59
2022/09/18 04:52:34;;;;;;;7.75;0.93;;;11.60;99.90;;;;;;5113017;27;38787;-59
2022/09/18 04:55:02;;;;;;;10.30;1.10;;;11.60;99.90;;;;;;5112181;27;38217;-59
2022/09/18 04:57:29;;;;;;;6.15;0.85;;;11.60;99.90;;;;;;5112205;27;36689;-59
2022/09/18 04:59:57;;;;;;;5.53;0.80;;;11.70;99.90;;;;;;5112861;27;37560;-57
2022/09/18 05:02:25;;;;;;;5.50;0.85;;;11.60;99.90;;;;;;5112057;27;38007;-57
2022/09/18 05:04:53;;;;;;;5.15;0.70;;;11.60;99.90;;;;;;5112246;27;37857;-57
2022/09/18 05:07:20;;;;;;;6.90;1.20;;;11.70;99.90;;;;;;5113263;27;36698;-57
2022/09/18 05:09:47;;;;;;;11.18;1.42;;;11.70;99.90;;;;;;5113327;27;37056;-58
2022/09/18 05:12:14;;;;;;;13.38;1.75;;;11.60;99.90;;;;;;5112460;27;37497;-59
2022/09/18 05:14:42;;;;;;;9.20;1.58;;;11.60;99.90;;;;;;5112441;27;38279;-58
2022/09/18 05:17:09;;;;;;;5.85;1.15;;;11.70;99.90;;;;;;5111579;27;38170;-57
2022/09/18 05:19:38;;;;;;;4.47;0.93;;;11.60;99.90;;;;;;5111250;27;35320;-59
2022/09/18 05:22:05;;;;;;;7.65;1.20;;;11.70;99.90;;;;;;5113114;27;36304;-59
2022/09/18 05:24:32;;;;;;;8.95;1.40;;;11.70;99.90;;;;;;5112067;27;38624;-59
2022/09/18 05:26:59;;;;;;;5.22;1.08;;;11.60;99.90;;;;;;5112773;27;38547;-58
2022/09/18 05:29:27;;;;;;;5.28;1.02;;;11.60;99.90;;;;;;5111950;27;37399;-59
2022/09/18 05:31:54;;;;;;;6.10;1.00;;;11.60;99.90;;;;;;5110733;27;37371;-57
2022/09/18 05:34:21;;;;;;;3.92;0.90;;;11.60;99.90;;;;;;5109722;27;37006;-57
2022/09/18 05:36:50;;;;;;;5.70;1.08;;;11.60;99.90;;;;;;5112050;27;37779;-57
2022/09/18 05:39:17;;;;;;;5.63;1.20;;;11.60;99.90;;;;;;5114167;27;37573;-57
2022/09/18 05:41:48;;;;;;;6.35;1.20;;;11.60;99.90;;;;;;5115985;27;37577;-57
2022/09/18 05:44:15;;;;;;;4.60;0.80;;;11.60;99.90;;;;;;5116007;27;38370;-57
2022/09/18 05:46:43;;;;;;;4.28;0.80;;;11.60;99.90;;;;;;5115667;27;39455;-57
2022/09/18 05:49:10;;;;;;;4.68;1.23;;;11.60;99.90;;;;;;5114932;27;36670;-59
2022/09/18 05:51:37;;;;;;;7.45;1.30;;;11.60;99.90;;;;;;5115414;27;36314;-58
2022/09/18 05:54:06;;;;;;;7.35;0.98;;;11.60;99.90;;;;;;5116284;27;39386;-59
2022/09/18 05:56:34;;;;;;;6.65;0.80;;;11.50;99.90;;;;;;5116091;27;38833;-58
2022/09/18 05:59:01;;;;;;;5.68;1.42;;;11.60;99.90;;;;;;5115888;27;37074;-59
2022/09/18 06:01:29;;;;;;;9.30;1.40;;;11.60;99.90;;;;;;5115614;27;36311;-59
2022/09/18 06:04:01;;;;;;;4.93;0.73;;;11.60;99.90;;;;;;5115645;27;20093;-57
2022/09/18 06:06:29;;;;;;;7.20;1.02;;;11.60;99.90;;;;;;5115888;27;37643;-58
2022/09/18 06:08:56;;;;;;;8.65;1.40;;;11.60;99.90;;;;;;5115388;27;36740;-58
2022/09/18 06:11:25;;;;;;;6.97;1.10;;;11.60;99.90;;;;;;5115854;27;38997;-57
2022/09/18 06:13:52;;;;;;;10.70;1.42;;;11.60;99.90;;;;;;5116148;27;38199;-59
2022/09/18 06:16:20;;;;;;;13.75;8.50;;;11.60;99.90;;;;;;5115367;27;36635;-57
2022/09/18 06:18:47;;;;;;;13.32;3.42;;;11.70;99.90;;;;;;5115260;27;36573;-57
2022/09/18 06:21:14;;;;;;;10.68;2.63;;;11.70;99.90;;;;;;5115865;27;39205;-59
2022/09/18 06:23:42;;;;;;;10.35;2.40;;;11.70;99.90;;;;;;5115217;27;36846;-59
2022/09/18 06:26:10;;;;;;;5.68;1.35;;;11.70;99.90;;;;;;5114941;27;37879;-59
2022/09/18 06:28:39;;;;;;;5.78;0.95;;;11.70;99.90;;;;;;5115926;27;36482;-59
2022/09/18 06:31:06;;;;;;;8.00;1.67;;;11.70;99.90;;;;;;5115473;27;37729;-59
2022/09/18 06:33:35;;;;;;;4.25;1.10;;;11.80;99.90;;;;;;5115440;27;38319;-59
2022/09/18 06:36:07;;;;;;;8.20;1.00;;;11.70;99.90;;;;;;5115687;27;37679;-56
2022/09/18 06:38:34;;;;;;;6.63;1.20;;;11.70;99.90;;;;;;5114429;27;36438;-57
2022/09/18 06:41:01;;;;;;;6.00;0.90;;;11.80;99.90;;;;;;5114998;27;36318;-57
2022/09/18 06:43:29;;;;;;;5.95;1.10;;;11.80;99.90;;;;;;5114670;27;38432;-57
2022/09/18 06:45:58;;;;;;;6.18;0.90;;;11.80;99.90;;;;;;5113734;27;39125;-57
2022/09/18 06:48:28;;;;;;;5.72;0.77;;;11.80;99.90;;;;;;5114257;27;37940;-59
2022/09/18 06:50:57;;;;;;;5.03;0.95;;;11.80;99.90;;;;;;5113805;27;37270;-59
2022/09/18 06:53:25;;;;;;;6.50;1.20;;;11.80;99.90;;;;;;5114984;27;39903;-59
2022/09/18 06:55:53;;;;;;;6.78;0.95;;;11.90;99.90;;;;;;5114910;27;37533;-59
2022/09/18 06:58:20;;;;;;;5.15;0.75;;;11.80;99.90;;;;;;5115437;27;36729;-57
2022/09/18 07:00:47;;;;;;;5.30;0.60;;;11.90;99.90;;;;;;5114595;27;37628;-58
2022/09/18 07:03:16;;;;;;;4.50;0.65;;;11.90;99.90;;;;;;5115359;27;36847;-58
2022/09/18 07:05:44;;;;;;;8.95;0.88;;;11.90;99.90;;;;;;5115550;27;36671;-57
2022/09/18 07:08:12;;;;;;;2.65;0.52;;;11.90;99.90;;;;;;5113784;27;36263;-57
2022/09/18 07:10:40;;;;;;;4.47;0.80;;;11.80;99.90;;;;;;5114899;27;37405;-58
2022/09/18 07:13:08;;;;;;;4.38;1.05;;;11.90;99.90;;;;;;5114053;27;38159;-57
2022/09/18 07:15:36;;;;;;;3.47;0.50;;;11.90;99.90;;;;;;5113830;27;38313;-57
2022/09/18 07:18:05;;;;;;;4.22;0.60;;;11.90;99.90;;;;;;5114920;27;37360;-59
2022/09/18 07:20:34;;;;;;;5.63;1.00;;;11.90;99.90;;;;;;5113892;27;37357;-57
2022/09/18 07:23:02;;;;;;;5.03;0.75;;;11.90;99.90;;;;;;5113881;27;38241;-57
2022/09/18 07:25:31;;;;;;;4.10;0.80;;;11.90;99.90;;;;;;5114452;27;37666;-59
2022/09/18 07:28:02;;;;;;;8.32;1.70;;;11.90;99.90;;;;;;5114460;27;36788;-59
2022/09/18 07:30:30;;;;;;;8.13;1.10;;;11.90;99.90;;;;;;5113857;27;38893;-59
2022/09/18 07:32:57;;;;;;;8.52;1.17;;;11.90;99.90;;;;;;5114968;27;38760;-59
2022/09/18 07:35:24;;;;;;;4.10;0.88;;;11.90;99.90;;;;;;5114474;27;37651;-59
2022/09/18 07:37:57;;;;;;;9.07;1.10;;;11.90;99.90;;;;;;5114009;27;37143;-58
2022/09/18 07:40:24;;;;;;;10.13;0.88;;;11.90;99.90;;;;;;5114274;27;37504;-58
2022/09/18 07:42:52;;;;;;;9.80;1.50;;;11.90;99.90;;;;;;5113601;27;38115;-59
2022/09/18 07:45:19;;;;;;;5.38;1.05;;;11.90;99.90;;;;;;5114901;27;36126;-59
2022/09/18 07:47:46;;;;;;;7.00;1.15;;;11.90;99.90;;;;;;5113857;27;38475;-59
2022/09/18 07:50:14;;;;;;;4.38;0.88;;;11.90;99.90;;;;;;5114429;27;38542;-57
2022/09/18 07:52:49;;;;;;;9.18;1.52;;;11.80;99.90;;;;;;5113267;27;37860;-58
2022/09/18 07:55:19;;;;;;;8.25;1.50;;;11.80;99.90;;;;;;5113549;27;36608;-57
2022/09/18 07:57:47;;;;;;;7.13;1.23;;;11.80;99.90;;;;;;5113306;27;37449;-58
2022/09/18 08:00:15;;;;;;;7.30;1.20;;;11.80;99.90;;;;;;5114091;27;37434;-58
2022/09/18 08:02:42;;;;;;;8.38;1.40;;;11.80;99.90;;;;;;5111686;27;38357;-59
2022/09/18 08:05:10;;;;;;;4.32;0.82;;;11.80;99.90;;;;;;5113156;27;37521;-59
2022/09/18 08:07:38;;;;;;;9.32;1.27;;;11.80;99.90;;;;;;5112736;27;39448;-59
2022/09/18 08:10:06;;;;;;;8.15;1.10;;;11.90;99.90;;;;;;5111667;27;37430;-59
2022/09/18 08:12:35;;;;;;;7.63;1.50;;;11.90;99.90;;;;;;5110519;27;38378;-59
2022/09/18 08:15:02;;;;;;;5.65;1.10;;;11.90;99.90;;;;;;5111337;27;39132;-57
2022/09/18 08:17:29;;;;;;;4.68;1.30;;;11.80;99.90;;;;;;5112644;27;36557;-57
2022/09/18 08:19:57;;;;;;;7.25;1.25;;;11.90;99.90;;;;;;5111943;27;38603;-57
2022/09/18 08:22:24;;;;;;;8.52;1.20;;;11.90;99.90;;;;;;5112689;27;38263;-59
2022/09/18 08:24:51;;;;;;;9.70;0.90;;;11.90;99.90;;;;;;5112567;27;38651;-59
2022/09/18 08:27:19;;;;;;;5.60;0.90;;;11.90;99.90;;;;;;5112925;27;37747;-57
2022/09/18 08:29:47;;;;;;;5.60;1.08;;;11.90;99.90;;;;;;5111477;27;38047;-57
2022/09/18 08:32:15;;;;;;;10.48;1.38;;;11.90;99.90;;;;;;5111927;27;38031;-57
2022/09/18 08:34:42;;;;;;;9.75;1.00;;;11.90;99.90;;;;;;5112557;27;40257;-58
2022/09/18 08:37:09;;;;;;;11.00;1.58;;;11.90;99.90;;;;;;5112426;27;37694;-58
2022/09/18 08:39:36;;;;;;;7.43;1.00;;;11.90;99.90;;;;;;5112600;27;36495;-57
2022/09/18 08:42:24;;;;;;;8.40;1.10;;;11.90;99.90;;;;;;5111458;27;38545;-59
2022/09/18 08:44:56;;;;;;;6.85;1.42;;;11.90;99.90;;;;;;5111898;27;36600;-59
2022/09/18 08:47:29;;;;;;;5.55;1.23;;;11.90;99.90;;;;;;5112633;27;33756;-59
2022/09/18 08:50:03;;;;;;;3.45;0.60;;;11.90;99.90;;;;;;5112646;27;37660;-59
2022/09/18 08:52:32;;;;;;;;;;;11.80;99.90;;;;;;5111698;27;38042;-59
2022/09/18 08:55:03;;;;;;;7.32;0.98;;;11.80;99.90;;;;;;5112785;27;38892;-59
2022/09/18 08:57:37;;;;;;;7.72;0.90;;;11.80;99.90;;;;;;5110998;27;37407;-57
2022/09/18 09:00:08;;;;;;;;;;;11.90;99.90;;;;;;5112365;27;37305;-57
2022/09/18 09:02:40;;;;;;;11.55;2.08;;;11.80;99.90;;;;;;5113043;27;37094;-58
2022/09/18 09:05:11;;;;;;;11.38;1.20;;;11.80;99.90;;;;;;5110547;27;36669;-58
2022/09/18 09:08:02;;;;;;;8.30;1.17;;;11.80;99.90;;;;;;5111336;27;38096;-59
2022/09/18 09:10:44;;;;;;;11.88;1.40;;;11.80;99.90;;;;;;5111427;27;37479;-57
2022/09/18 09:13:40;;;;;;;6.50;1.20;;;11.80;99.90;;;;;;5111679;27;36982;-59
2022/09/18 09:16:16;;;;;;;4.82;1.20;;;11.70;99.90;;;;;;5105539;27;36812;-58
2022/09/18 09:18:58;;;;;;;10.73;2.10;;;11.70;99.90;;;;;;5111866;27;36608;-58
2022/09/18 09:21:51;;;;;;;8.68;1.52;;;11.80;99.90;;;;;;5112316;27;38610;-58
2022/09/18 09:24:32;;;;;;;5.97;1.23;;;11.70;99.90;;;;;;5110568;27;37992;-58
2022/09/18 09:27:08;;;;;;;7.05;1.10;;;11.70;99.90;;;;;;5110386;27;37533;-58
2022/09/18 09:29:39;;;;;;;10.38;1.50;;;11.70;99.90;;;;;;5111473;27;36451;-60
2022/09/18 09:32:22;;;;;;;14.35;1.35;;;11.70;99.90;;;;;;5112383;27;38640;-58
2022/09/18 09:34:53;;;;;;;5.82;1.20;;;11.70;99.90;;;;;;5111063;27;36250;-58
2022/09/18 09:37:25;;;;;;;7.03;1.42;;;11.70;99.90;;;;;;5111041;27;36425;-58
2022/09/18 09:39:56;;;;;;;6.28;1.23;;;11.70;99.90;;;;;;5110117;27;37646;-60
2022/09/18 09:42:29;;;;;;;7.00;1.60;;;11.70;99.90;;;;;;5111643;27;36353;-58
2022/09/18 09:45:00;;;;;;;9.40;1.50;;;11.70;99.90;;;;;;5111899;27;37908;-58
2022/09/18 09:47:37;;;;;;;7.00;1.33;;;11.70;99.90;;;;;;5111747;27;39703;-58
2022/09/18 09:50:23;;;;;;;5.13;1.08;;;11.70;99.90;;;;;;5110990;27;36728;-58
2022/09/18 09:52:56;;;;;;;12.77;1.60;;;11.80;99.90;;;;;;5111950;27;37746;-58
2022/09/18 09:55:27;;;;;;;7.82;2.10;;;11.80;99.90;;;;;;5110318;27;38091;-58
2022/09/18 09:58:05;;;;;;;8.23;2.15;;;11.80;99.90;;;;;;5111506;27;37802;-58
2022/09/18 10:00:41;;;;;;;5.53;1.40;;;11.80;99.90;;;;;;5111289;27;36681;-58
2022/09/18 10:03:29;;;;;;;5.30;1.10;;;11.90;99.90;;;;;;5110258;27;37862;-60
2022/09/18 10:06:05;;;;;;;4.90;1.17;;;11.90;99.90;;;;;;5111278;27;39564;-60
2022/09/18 10:08:41;;;;;;;9.65;1.65;;;11.90;99.90;;;;;;5110660;27;39360;-60
2022/09/18 10:11:11;;;;;;;10.32;1.60;;;12.00;99.90;;;;;;5110916;27;36518;-58
2022/09/18 10:13:44;;;;;;;13.90;1.85;;;12.00;99.90;;;;;;5110562;27;38473;-58
2022/09/18 10:16:15;;;;;;;;;;;12.00;99.90;;;;;;5110578;27;38131;-58
2022/09/18 10:18:45;;;;;;;6.53;1.17;;;12.00;99.90;;;;;;5111689;27;37328;-58
2022/09/18 10:21:15;;;;;;;7.43;1.50;;;12.00;99.90;;;;;;5110305;27;37895;-58
2022/09/18 10:23:44;;;;;;;10.45;2.15;;;12.00;99.90;;;;;;5110736;27;36400;-58
2022/09/18 10:26:18;;;;;;;8.38;1.77;;;12.00;99.90;;;;;;5112894;27;38305;-58
2022/09/18 10:28:45;;;;;;;9.48;1.27;;;12.10;99.90;;;;;;5114696;27;36658;-58
2022/09/18 10:31:14;;;;;;;10.27;1.73;;;12.10;99.90;;;;;;5114850;27;37513;-58
2022/09/18 10:33:44;;;;;;;7.93;1.48;;;12.20;99.90;;;;;;5114974;27;37787;-58
2022/09/18 10:36:20;;;;;;;12.65;2.10;;;12.20;99.90;;;;;;5113915;27;37542;-58
2022/09/18 10:38:48;;;;;;;8.32;1.85;;;12.20;99.90;;;;;;5114763;27;37937;-58
2022/09/18 10:41:34;;;;;;;8.55;1.23;;;12.30;99.90;;;;;;5114306;27;36799;-58
2022/09/18 10:44:07;;;;;;;11.20;2.00;;;12.30;99.90;;;;;;5114368;27;37689;-58
2022/09/18 10:46:39;;;;;;;12.03;1.90;;;12.20;99.90;;;;;;5113672;27;38348;-58
2022/09/18 10:49:19;;;;;;;7.18;1.70;;;12.30;99.90;;;;;;5114770;27;36607;-58
2022/09/18 10:51:46;;;;;;;9.25;1.40;;;12.50;99.90;;;;;;5113643;27;35142;-58
2022/09/18 10:54:21;;;;;;;8.35;1.50;;;12.50;99.90;;;;;;5114351;27;37351;-60
2022/09/18 10:56:49;;;;;;;7.15;1.60;;;12.60;99.90;;;;;;5112627;27;39351;-60
2022/09/18 10:59:34;;;;;;;11.20;1.85;;;12.60;99.90;;;;;;5115022;27;37771;-61
2022/09/18 11:02:04;;;;;;;14.07;1.83;;;12.70;99.90;;;;;;5113397;27;36462;-60
2022/09/18 11:04:34;;;;;;;9.32;2.13;;;12.70;99.90;;;;;;5112822;27;37613;-58
2022/09/18 11:07:06;;;;;;;10.20;2.03;;;12.80;99.90;;;;;;5112653;27;37924;-58
2022/09/18 11:09:37;;;;;;;8.52;1.95;;;12.80;99.90;;;;;;5113894;27;37733;-58
2022/09/18 11:12:05;;;;;;;9.18;2.20;;;12.90;99.90;;;;;;5114118;27;36486;-58
2022/09/18 11:14:40;;;;;;;12.40;1.85;;;12.90;99.90;;;;;;5112283;27;38506;-58
2022/09/18 11:17:19;;;;;;;8.30;1.70;;;12.90;99.90;;;;;;5113400;27;38393;-60
2022/09/18 11:19:52;;;;;;;13.02;3.15;;;12.90;99.90;;;;;;5113192;27;37630;-61
2022/09/18 11:22:34;;;;;;;10.43;2.22;;;13.00;99.90;;;;;;5113482;27;36643;-58
2022/09/18 11:25:18;;;;;;;9.83;1.37;;;13.00;99.90;;;;;;5114054;27;37527;-58
2022/09/18 11:27:47;;;;;;;9.05;1.90;;;13.10;99.90;;;;;;5113396;27;38447;-58
2022/09/18 11:30:20;;;;;;;10.57;1.92;;;13.10;99.90;;;;;;5113140;27;38681;-58
2022/09/18 11:32:49;;;;;;;8.52;1.15;;;13.10;99.90;;;;;;5112835;27;36620;-60
2022/09/18 11:35:21;;;;;;;11.77;1.38;;;13.10;99.90;;;;;;5113052;27;36246;-58
2022/09/18 11:37:51;;;;;;;8.80;1.38;;;13.10;99.90;;;;;;5112275;27;38154;-60
2022/09/18 11:40:22;;;;;;;10.43;1.65;;;13.10;99.90;;;;;;5113486;27;37723;-58
2022/09/18 11:42:52;;;;;;;6.38;1.50;;;13.10;99.90;;;;;;5113291;27;37921;-58
2022/09/18 11:45:40;;;;;;;8.07;1.52;;;13.10;99.90;;;;;;5112759;27;38694;-58
2022/09/18 11:48:21;;;;;;;7.18;1.38;;;13.20;99.90;;;;;;5111695;27;39636;-58
2022/09/18 11:50:51;;;;;;;10.85;1.95;;;13.10;99.90;;;;;;5114038;27;38635;-58
2022/09/18 11:53:23;;;;;;;8.30;1.27;;;13.10;99.90;;;;;;5112585;27;35595;-58
2022/09/18 11:55:57;;;;;;;10.57;2.40;;;13.20;99.90;;;;;;5113773;27;37637;-58
2022/09/18 11:58:32;;;;;;;10.98;1.25;;;13.20;99.90;;;;;;5111624;27;38392;-58
2022/09/18 12:01:11;;;;;;;7.72;1.35;;;13.10;99.90;;;;;;5112415;27;38482;-58
2022/09/18 12:03:44;;;;;;;5.45;1.10;;;13.20;99.90;;;;;;5112951;27;36588;-58
2022/09/18 12:06:22;;;;;;;5.13;1.50;;;13.20;99.90;;;;;;5113389;27;37545;-58
2022/09/18 12:08:56;;;;;;;9.57;1.60;;;13.20;99.90;;;;;;5112594;27;38107;-58
2022/09/18 12:11:33;;;;;;;5.65;1.02;;;13.20;99.90;;;;;;5112905;27;38407;-58
2022/09/18 12:14:09;;;;;;;7.55;1.88;;;13.20;99.90;;;;;;5112061;27;36609;-57
2022/09/18 12:16:44;;;;;;;13.65;1.63;;;13.20;99.90;;;;;;5111354;27;37401;-58
2022/09/18 12:19:17;;;;;;;5.75;1.20;;;13.20;99.90;;;;;;5112086;27;38339;-58
2022/09/18 12:21:53;;;;;;;9.32;1.30;;;13.20;99.90;;;;;;5112662;27;36665;-58
2022/09/18 12:24:21;;;;;;;6.75;1.25;;;13.20;99.90;;;;;;5111680;27;39097;-58
2022/09/18 12:26:56;;;;;;;8.95;1.85;;;13.20;99.90;;;;;;5113129;27;38520;-58
2022/09/18 12:29:37;;;;;;;8.77;1.15;;;13.20;99.90;;;;;;5110864;27;38383;-57
2022/09/18 12:32:19;;;;;;;7.32;1.27;;;13.20;99.90;;;;;;5112490;27;38439;-58
2022/09/18 12:34:54;;;;;;;6.15;1.08;;;13.20;99.90;;;;;;5111192;27;37273;-58
2022/09/18 12:37:36;;;;;;;8.57;1.40;;;13.20;99.90;;;;;;5112102;27;38881;-58
2022/09/18 12:40:23;;;;;;;5.57;1.13;;;13.20;99.90;;;;;;5111307;27;37061;-58
2022/09/18 12:43:02;;;;;;;7.32;1.70;;;13.20;99.90;;;;;;5112397;27;36581;-60
2022/09/18 12:45:57;;;;;;;10.73;1.70;;;13.20;99.90;;;;;;5111938;27;36628;-60
2022/09/18 12:48:39;;;;;;;8.55;1.48;;;13.20;99.90;;;;;;5112267;27;37349;-60
2022/09/18 12:51:32;;;;;;;7.32;1.30;;;13.20;99.90;;;;;;5112623;27;39051;-60
2022/09/18 12:54:16;;;;;;;11.95;1.20;;;13.20;99.90;;;;;;5111907;27;38818;-57
2022/09/18 12:57:07;;;;;;;8.45;1.73;;;13.30;99.90;;;;;;5111494;27;36351;-58
2022/09/18 12:59:47;;;;;;;6.95;1.38;;;13.30;99.90;;;;;;5111878;27;38725;-58
2022/09/18 13:02:27;;;;;;;8.73;1.10;;;13.30;99.90;;;;;;5112254;27;38314;-58
2022/09/18 13:05:02;;;;;;;5.97;1.30;;;13.30;99.90;;;;;;5111478;27;36533;-58
2022/09/18 13:07:33;;;;;;;6.57;1.42;;;13.30;99.90;;;;;;5112635;27;35279;-60